sensor_id;sensor_type;location;lat;lon;timestamp;pressure;altitude;pressure_sealevel;temperature;humidity
26861;BME280;37676;46.956;7.430;2022-08-01T00:00:09;95523.88;;;26.89;39.50
26861;BME280;37676;46.956;7.430;2022-08-01T00:02:37;95524.59;;;26.90;39.51
26861;BME280;37676;46.956;7.430;2022-08-01T00:05:03;95504.28;;;26.76;39.67
26861;BME280;37676;46.956;7.430;2022-08-01T00:07:31;95520.09;;;26.87;39.61
26861;BME280;37676;46.956;7.430;2022-08-01T00:09:56;95521.44;;;26.86;39.49
26861;BME280;37676;46.956;7.430;2022-08-01T00:12:22;95512.56;;;26.82;39.90
26861;BME280;37676;46.956;7.430;2022-08-01T00:14:47;95513.75;;;26.79;39.93
26861;BME280;37676;46.956;7.430;2022-08-01T00:17:12;95516.44;;;26.77;39.75
26861;BME280;37676;46.956;7.430;2022-08-01T00:19:38;95517.66;;;26.74;39.58
26861;BME280;37676;46.956;7.430;2022-08-01T00:22:03;95517.31;;;26.70;39.98
26861;BME280;37676;46.956;7.430;2022-08-01T00:24:28;95339.72;;;25.43;39.88
26861;BME280;37676;46.956;7.430;2022-08-01T00:26:54;95524.81;;;26.65;39.95
26861;BME280;37676;46.956;7.430;2022-08-01T00:31:44;94823.19;;;21.76;39.74
26861;BME280;37676;46.956;7.430;2022-08-01T00:34:10;94777.03;;;21.41;40.00
26861;BME280;37676;46.956;7.430;2022-08-01T00:36:35;95135.25;;;23.84;39.88
26861;BME280;37676;46.956;7.430;2022-08-01T00:39:05;95086.94;;;23.67;39.96
26861;BME280;37676;46.956;7.430;2022-08-01T00:41:30;94918.59;;;22.22;39.93
26861;BME280;37676;46.956;7.430;2022-08-01T00:44:03;95142.25;;;24.00;39.67
26861;BME280;37676;46.956;7.430;2022-08-01T00:46:28;95554.16;;;26.49;40.17
26861;BME280;37676;46.956;7.430;2022-08-01T00:48:53;95065.28;;;22.96;40.08
26861;BME280;37676;46.956;7.430;2022-08-01T00:51:20;94539.84;;;19.52;39.96
26861;BME280;37676;46.956;7.430;2022-08-01T00:53:45;95543.47;;;26.39;39.85
26861;BME280;37676;46.956;7.430;2022-08-01T00:56:11;94937.38;;;22.10;40.08
26861;BME280;37676;46.956;7.430;2022-08-01T00:58:36;94993.78;;;22.48;40.66
26861;BME280;37676;46.956;7.430;2022-08-01T01:01:02;94558.41;;;19.70;40.17
26861;BME280;37676;46.956;7.430;2022-08-01T01:03:30;94509.72;;;19.62;40.01
26861;BME280;37676;46.956;7.430;2022-08-01T01:06:14;94111.28;;;16.91;40.11
26861;BME280;37676;46.956;7.430;2022-08-01T01:09:33;93960.94;;;15.84;40.05
26861;BME280;37676;46.956;7.430;2022-08-01T01:17:51;95234.25;;;24.12;40.31
26861;BME280;37676;46.956;7.430;2022-08-01T01:20:21;95524.88;;;26.21;39.99
26861;BME280;37676;46.956;7.430;2022-08-01T01:30:36;95340.00;;;24.87;40.43
26861;BME280;37676;46.956;7.430;2022-08-01T01:33:06;95236.63;;;23.99;40.67
26861;BME280;37676;46.956;7.430;2022-08-01T01:35:35;95010.72;;;22.63;40.47
26861;BME280;37676;46.956;7.430;2022-08-01T01:38:05;95222.84;;;23.95;40.80
26861;BME280;37676;46.956;7.430;2022-08-01T01:40:32;95321.41;;;24.51;40.72
26861;BME280;37676;46.956;7.430;2022-08-01T01:42:59;95096.53;;;23.13;40.68
26861;BME280;37676;46.956;7.430;2022-08-01T01:45:25;95312.22;;;24.43;40.55
26861;BME280;37676;46.956;7.430;2022-08-01T01:47:52;94913.13;;;21.60;40.91
26861;BME280;37676;46.956;7.430;2022-08-01T01:50:21;94837.44;;;21.36;40.51
26861;BME280;37676;46.956;7.430;2022-08-01T01:52:48;94800.47;;;20.54;40.97
26861;BME280;37676;46.956;7.430;2022-08-01T01:55:15;95464.44;;;25.28;41.07
26861;BME280;37676;46.956;7.430;2022-08-01T01:57:44;95127.75;;;23.13;41.00
26861;BME280;37676;46.956;7.430;2022-08-01T02:00:11;95520.81;;;25.81;41.01
26861;BME280;37676;46.956;7.430;2022-08-01T02:02:42;94278.44;;;17.50;40.79
26861;BME280;37676;46.956;7.430;2022-08-01T02:05:11;95309.88;;;24.32;41.13
26861;BME280;37676;46.956;7.430;2022-08-01T02:07:38;94695.84;;;20.22;40.94
26861;BME280;37676;46.956;7.430;2022-08-01T02:10:05;95406.63;;;24.25;41.26
26861;BME280;37676;46.956;7.430;2022-08-01T02:12:34;95305.78;;;23.77;40.98
26861;BME280;37676;46.956;7.430;2022-08-01T02:15:02;94693.63;;;19.98;41.12
26861;BME280;37676;46.956;7.430;2022-08-01T02:17:29;95289.03;;;23.88;40.95
26861;BME280;37676;46.956;7.430;2022-08-01T02:19:55;94347.34;;;17.36;40.97
26861;BME280;37676;46.956;7.430;2022-08-01T02:22:29;94132.38;;;15.81;41.07
26861;BME280;37676;46.956;7.430;2022-08-01T02:25:22;95516.91;;;25.59;41.02
26861;BME280;37676;46.956;7.430;2022-08-01T02:30:19;95133.72;;;23.00;41.54
26861;BME280;37676;46.956;7.430;2022-08-01T02:32:47;95082.19;;;22.61;41.38
26861;BME280;37676;46.956;7.430;2022-08-01T02:42:00;95543.66;;;25.46;41.06
26861;BME280;37676;46.956;7.430;2022-08-01T02:44:34;95300.56;;;23.90;41.54
26861;BME280;37676;46.956;7.430;2022-08-01T02:47:02;95442.78;;;24.74;41.55
26861;BME280;37676;46.956;7.430;2022-08-01T02:49:33;95300.41;;;23.88;41.30
26861;BME280;37676;46.956;7.430;2022-08-01T02:52:13;95323.13;;;23.88;41.44
26861;BME280;37676;46.956;7.430;2022-08-01T02:54:40;95534.16;;;25.44;41.35
26861;BME280;37676;46.956;7.430;2022-08-01T02:57:08;95419.00;;;24.62;41.39
26861;BME280;37676;46.956;7.430;2022-08-01T02:59:36;95017.25;;;21.77;41.48
26861;BME280;37676;46.956;7.430;2022-08-01T03:02:06;94741.59;;;20.13;41.47
26861;BME280;37676;46.956;7.430;2022-08-01T03:04:37;95110.31;;;22.67;41.43
26861;BME280;37676;46.956;7.430;2022-08-01T03:07:06;95025.44;;;21.65;41.41
26861;BME280;37676;46.956;7.430;2022-08-01T03:09:36;95516.47;;;25.28;41.47
26861;BME280;37676;46.956;7.430;2022-08-01T03:12:04;94447.59;;;17.85;41.30
26861;BME280;37676;46.956;7.430;2022-08-01T03:14:33;94354.78;;;17.04;41.48
26861;BME280;37676;46.956;7.430;2022-08-01T03:17:00;94912.00;;;21.23;41.79
26861;BME280;37676;46.956;7.430;2022-08-01T03:19:28;95523.91;;;25.24;41.65
26861;BME280;37676;46.956;7.430;2022-08-01T03:21:56;94513.31;;;18.32;41.56
26861;BME280;37676;46.956;7.430;2022-08-01T03:24:34;94287.53;;;17.06;41.73
26861;BME280;37676;46.956;7.430;2022-08-01T03:27:03;95007.63;;;21.87;41.79
26861;BME280;37676;46.956;7.430;2022-08-01T03:29:29;95153.63;;;22.68;41.61
26861;BME280;37676;46.956;7.430;2022-08-01T03:31:58;95107.69;;;22.29;41.99
26861;BME280;37676;46.956;7.430;2022-08-01T03:34:25;95318.94;;;23.89;42.04
26861;BME280;37676;46.956;7.430;2022-08-01T03:39:31;94788.09;;;20.27;41.87
26861;BME280;37676;46.956;7.430;2022-08-01T03:42:04;95612.69;;;25.13;42.14
26861;BME280;37676;46.956;7.430;2022-08-01T03:44:32;94933.00;;;21.13;41.78
26861;BME280;37676;46.956;7.430;2022-08-01T03:47:02;95099.41;;;22.24;41.93
26861;BME280;37676;46.956;7.430;2022-08-01T03:49:35;95288.72;;;23.52;42.28
26861;BME280;37676;46.956;7.430;2022-08-01T03:52:04;95569.53;;;24.99;42.13
26861;BME280;37676;46.956;7.430;2022-08-01T03:54:35;95516.00;;;24.98;42.02
26861;BME280;37676;46.956;7.430;2022-08-01T03:57:03;94548.97;;;18.30;42.27
26861;BME280;37676;46.956;7.430;2022-08-01T03:59:32;95511.13;;;24.91;42.27
26861;BME280;37676;46.956;7.430;2022-08-01T04:02:06;94668.16;;;19.21;42.15
26861;BME280;37676;46.956;7.430;2022-08-01T04:04:32;95059.94;;;21.71;42.00
26861;BME280;37676;46.956;7.430;2022-08-01T04:06:58;93880.56;;;13.91;42.21
26861;BME280;37676;46.956;7.430;2022-08-01T04:09:29;95533.31;;;24.75;42.07
26861;BME280;37676;46.956;7.430;2022-08-01T04:11:55;95509.00;;;24.74;42.39
26861;BME280;37676;46.956;7.430;2022-08-01T04:14:20;95569.19;;;24.71;42.47
26861;BME280;37676;46.956;7.430;2022-08-01T04:16:46;94794.94;;;19.64;41.90
26861;BME280;37676;46.956;7.430;2022-08-01T04:19:20;94188.66;;;15.47;42.08
26861;BME280;37676;46.956;7.430;2022-08-01T04:21:46;94129.13;;;15.34;42.57
26861;BME280;37676;46.956;7.430;2022-08-01T04:24:14;95519.09;;;24.68;42.46
26861;BME280;37676;46.956;7.430;2022-08-01T04:26:43;95015.56;;;21.34;42.61
26861;BME280;37676;46.956;7.430;2022-08-01T04:29:10;94249.63;;;16.26;42.63
26861;BME280;37676;46.956;7.430;2022-08-01T04:31:42;94343.34;;;16.51;42.70
26861;BME280;37676;46.956;7.430;2022-08-01T04:34:11;94441.75;;;17.09;42.64
26861;BME280;37676;46.956;7.430;2022-08-01T04:36:38;95015.41;;;20.87;42.81
26861;BME280;37676;46.956;7.430;2022-08-01T04:39:07;95594.06;;;24.63;42.74
26861;BME280;37676;46.956;7.430;2022-08-01T04:41:33;94460.97;;;17.41;42.74
26861;BME280;37676;46.956;7.430;2022-08-01T04:44:01;94769.28;;;19.17;42.73
26861;BME280;37676;46.956;7.430;2022-08-01T04:46:28;94186.09;;;15.57;42.53
26861;BME280;37676;46.956;7.430;2022-08-01T04:48:54;94251.31;;;15.85;42.90
26861;BME280;37676;46.956;7.430;2022-08-01T04:51:22;94306.41;;;16.39;42.88
26861;BME280;37676;46.956;7.430;2022-08-01T04:53:51;95063.06;;;21.43;42.74
26861;BME280;37676;46.956;7.430;2022-08-01T04:56:20;94266.09;;;15.86;42.59
26861;BME280;37676;46.956;7.430;2022-08-01T04:58:46;94898.09;;;20.10;42.71
26861;BME280;37676;46.956;7.430;2022-08-01T05:01:12;94991.88;;;20.92;43.06
26861;BME280;37676;46.956;7.430;2022-08-01T05:03:41;94726.44;;;19.11;43.02
26861;BME280;37676;46.956;7.430;2022-08-01T05:06:09;94721.72;;;19.06;43.18
26861;BME280;37676;46.956;7.430;2022-08-01T05:08:37;94778.84;;;18.99;43.28
26861;BME280;37676;46.956;7.430;2022-08-01T05:11:05;95552.47;;;24.42;43.15
26861;BME280;37676;46.956;7.430;2022-08-01T05:13:43;95543.75;;;24.40;43.20
26861;BME280;37676;46.956;7.430;2022-08-01T05:16:09;94504.13;;;17.08;43.35
26861;BME280;37676;46.956;7.430;2022-08-01T05:18:37;95543.03;;;24.40;43.57
26861;BME280;37676;46.956;7.430;2022-08-01T05:21:05;94907.88;;;19.79;43.19
26861;BME280;37676;46.956;7.430;2022-08-01T05:23:33;94896.13;;;19.45;43.27
26861;BME280;37676;46.956;7.430;2022-08-01T05:26:01;94320.75;;;16.28;43.24
26861;BME280;37676;46.956;7.430;2022-08-01T05:28:30;94313.94;;;16.16;43.28
26861;BME280;37676;46.956;7.430;2022-08-01T05:30:58;95061.97;;;21.23;43.42
26861;BME280;37676;46.956;7.430;2022-08-01T05:33:26;94275.25;;;15.86;43.88
26861;BME280;37676;46.956;7.430;2022-08-01T05:35:54;94279.09;;;16.04;43.20
26861;BME280;37676;46.956;7.430;2022-08-01T05:38:22;94261.38;;;15.81;43.30
26861;BME280;37676;46.956;7.430;2022-08-01T05:40:48;95036.69;;;21.18;43.09
26861;BME280;37676;46.956;7.430;2022-08-01T05:43:20;94297.88;;;15.88;43.28
26861;BME280;37676;46.956;7.430;2022-08-01T05:45:45;94743.75;;;19.07;43.34
26861;BME280;37676;46.956;7.430;2022-08-01T05:48:11;94234.13;;;15.61;43.16
26861;BME280;37676;46.956;7.430;2022-08-01T05:50:39;94126.72;;;14.61;43.65
26861;BME280;37676;46.956;7.430;2022-08-01T05:53:08;95594.19;;;24.47;43.47
26861;BME280;37676;46.956;7.430;2022-08-01T05:55:36;95300.25;;;22.90;43.57
26861;BME280;37676;46.956;7.430;2022-08-01T05:58:04;94725.47;;;18.93;43.16
26861;BME280;37676;46.956;7.430;2022-08-01T06:00:32;94193.91;;;15.51;43.88
26861;BME280;37676;46.956;7.430;2022-08-01T06:03:00;95591.22;;;24.30;43.85
26861;BME280;37676;46.956;7.430;2022-08-01T06:05:29;95534.63;;;24.49;43.63
26861;BME280;37676;46.956;7.430;2022-08-01T06:07:54;95598.69;;;24.50;43.93
26861;BME280;37676;46.956;7.430;2022-08-01T06:10:26;95543.28;;;24.51;44.04
26861;BME280;37676;46.956;7.430;2022-08-01T06:12:54;94039.44;;;14.62;43.62
26861;BME280;37676;46.956;7.430;2022-08-01T06:15:19;94743.72;;;19.15;44.01
26861;BME280;37676;46.956;7.430;2022-08-01T06:17:47;94745.25;;;19.16;44.18
26861;BME280;37676;46.956;7.430;2022-08-01T06:20:15;94862.88;;;19.96;43.96
26861;BME280;37676;46.956;7.430;2022-08-01T06:22:43;95166.00;;;22.00;44.08
26861;BME280;37676;46.956;7.430;2022-08-01T06:25:09;94705.53;;;18.91;44.01
26861;BME280;37676;46.956;7.430;2022-08-01T06:27:37;94177.38;;;15.40;44.06
26861;BME280;37676;46.956;7.430;2022-08-01T06:30:08;94972.69;;;20.30;44.37
26861;BME280;37676;46.956;7.430;2022-08-01T06:32:37;94967.56;;;20.73;44.28
26861;BME280;37676;46.956;7.430;2022-08-01T06:38:24;95106.78;;;21.72;44.26
26861;BME280;37676;46.956;7.430;2022-08-01T06:40:49;94988.31;;;20.53;44.32
26861;BME280;37676;46.956;7.430;2022-08-01T06:43:22;94376.50;;;16.52;44.44
26861;BME280;37676;46.956;7.430;2022-08-01T06:45:48;95031.41;;;21.29;44.42
26861;BME280;37676;46.956;7.430;2022-08-01T06:48:15;95499.06;;;24.33;44.43
26861;BME280;37676;46.956;7.430;2022-08-01T06:50:41;94991.13;;;20.68;44.57
26861;BME280;37676;46.956;7.430;2022-08-01T06:53:06;94911.28;;;20.38;44.60
26861;BME280;37676;46.956;7.430;2022-08-01T06:55:35;95155.00;;;22.04;44.65
26861;BME280;37676;46.956;7.430;2022-08-01T06:58:06;94752.94;;;19.08;44.63
26861;BME280;37676;46.956;7.430;2022-08-01T07:00:40;95543.41;;;24.93;44.77
26861;BME280;37676;46.956;7.430;2022-08-01T07:03:34;94271.97;;;16.03;44.73
26861;BME280;37676;46.956;7.430;2022-08-01T07:06:03;94661.56;;;18.88;45.09
26861;BME280;37676;46.956;7.430;2022-08-01T07:08:31;94746.78;;;19.77;45.34
26861;BME280;37676;46.956;7.430;2022-08-01T07:11:07;94349.91;;;17.12;44.80
26861;BME280;37676;46.956;7.430;2022-08-01T07:13:33;94657.06;;;19.15;44.96
26861;BME280;37676;46.956;7.430;2022-08-01T07:15:58;94372.22;;;17.02;44.74
26861;BME280;37676;46.956;7.430;2022-08-01T07:18:23;94661.41;;;19.24;44.71
26861;BME280;37676;46.956;7.430;2022-08-01T07:20:49;95535.91;;;25.22;45.07
26861;BME280;37676;46.956;7.430;2022-08-01T07:23:15;94753.50;;;19.97;44.56
26861;BME280;37676;46.956;7.430;2022-08-01T07:25:41;95013.66;;;21.29;45.25
26861;BME280;37676;46.956;7.430;2022-08-01T07:28:07;95075.94;;;22.31;45.04
26861;BME280;37676;46.956;7.430;2022-08-01T07:30:33;95205.03;;;23.04;45.16
26861;BME280;37676;46.956;7.430;2022-08-01T07:32:58;94948.09;;;21.55;44.70
26861;BME280;37676;46.956;7.430;2022-08-01T07:38:32;95287.03;;;23.98;44.90
26861;BME280;37676;46.956;7.430;2022-08-01T07:40:57;94915.28;;;21.52;44.76
26861;BME280;37676;46.956;7.430;2022-08-01T07:43:23;95490.53;;;25.41;44.68
26861;BME280;37676;46.956;7.430;2022-08-01T07:45:48;95335.28;;;24.30;44.84
26861;BME280;37676;46.956;7.430;2022-08-01T07:48:14;95468.72;;;25.19;44.63
26861;BME280;37676;46.956;7.430;2022-08-01T07:50:39;95461.25;;;25.07;44.81
26861;BME280;37676;46.956;7.430;2022-08-01T07:53:04;95124.75;;;23.11;44.50
26861;BME280;37676;46.956;7.430;2022-08-01T07:55:30;95195.06;;;23.44;44.71
26861;BME280;37676;46.956;7.430;2022-08-01T07:57:55;94528.91;;;18.94;44.41
26861;BME280;37676;46.956;7.430;2022-08-01T08:00:21;94883.41;;;21.76;44.65
26861;BME280;37676;46.956;7.430;2022-08-01T08:02:46;95510.00;;;25.96;44.36
26861;BME280;37676;46.956;7.430;2022-08-01T08:05:12;95022.84;;;22.81;44.72
26861;BME280;37676;46.956;7.430;2022-08-01T08:07:38;95456.28;;;25.76;44.90
26861;BME280;37676;46.956;7.430;2022-08-01T08:10:04;95290.63;;;24.58;44.61
26861;BME280;37676;46.956;7.430;2022-08-01T08:12:30;94984.47;;;22.30;44.43
26861;BME280;37676;46.956;7.430;2022-08-01T08:14:56;94789.50;;;21.06;44.59
26861;BME280;37676;46.956;7.430;2022-08-01T08:17:25;95557.16;;;26.24;44.50
26861;BME280;37676;46.956;7.430;2022-08-01T08:19:50;95235.53;;;23.94;44.94
26861;BME280;37676;46.956;7.430;2022-08-01T08:22:16;94540.25;;;19.48;44.31
26861;BME280;37676;46.956;7.430;2022-08-01T08:24:41;95146.09;;;23.95;44.34
26861;BME280;37676;46.956;7.430;2022-08-01T08:27:06;95052.75;;;22.99;44.52
26861;BME280;37676;46.956;7.430;2022-08-01T08:29:33;95493.59;;;26.40;44.39
26861;BME280;37676;46.956;7.430;2022-08-01T08:31:59;95506.09;;;26.45;44.45
26861;BME280;37676;46.956;7.430;2022-08-01T08:34:26;95496.66;;;26.52;44.41
26861;BME280;37676;46.956;7.430;2022-08-01T08:40:14;95312.31;;;25.31;44.83
26861;BME280;37676;46.956;7.430;2022-08-01T08:42:40;95408.00;;;26.04;44.39
26861;BME280;37676;46.956;7.430;2022-08-01T08:45:06;95501.56;;;26.69;44.38
26861;BME280;37676;46.956;7.430;2022-08-01T08:47:32;95440.25;;;26.33;44.04
26861;BME280;37676;46.956;7.430;2022-08-01T08:50:00;95119.88;;;24.21;44.05
26861;BME280;37676;46.956;7.430;2022-08-01T08:52:27;94888.47;;;22.76;43.77
26861;BME280;37676;46.956;7.430;2022-08-01T08:54:53;95509.88;;;26.84;43.43
26861;BME280;37676;46.956;7.430;2022-08-01T08:57:20;95213.72;;;25.09;43.58
26861;BME280;37676;46.956;7.430;2022-08-01T08:59:46;94720.13;;;21.71;43.29
26861;BME280;37676;46.956;7.430;2022-08-01T09:02:12;95086.25;;;24.27;43.58
26861;BME280;37676;46.956;7.430;2022-08-01T09:04:38;94949.38;;;23.09;42.66
26861;BME280;37676;46.956;7.430;2022-08-01T09:07:05;94269.00;;;18.95;42.76
26861;BME280;37676;46.956;7.430;2022-08-01T09:09:32;94807.31;;;22.22;42.16
26861;BME280;37676;46.956;7.430;2022-08-01T09:11:58;94934.31;;;22.82;42.23
26861;BME280;37676;46.956;7.430;2022-08-01T09:14:25;95478.69;;;27.24;42.64
26861;BME280;37676;46.956;7.430;2022-08-01T09:17:08;94966.47;;;23.70;41.74
26861;BME280;37676;46.956;7.430;2022-08-01T09:22:04;95395.03;;;26.76;41.85
26861;BME280;37676;46.956;7.430;2022-08-01T09:24:30;95493.91;;;27.46;42.17
26861;BME280;37676;46.956;7.430;2022-08-01T09:26:57;95310.03;;;26.09;42.03
26861;BME280;37676;46.956;7.430;2022-08-01T09:29:28;95482.63;;;27.57;42.00
26861;BME280;37676;46.956;7.430;2022-08-01T09:31:55;95265.72;;;26.08;42.11
26861;BME280;37676;46.956;7.430;2022-08-01T09:34:39;95269.66;;;26.22;41.98
26861;BME280;37676;46.956;7.430;2022-08-01T09:37:05;95267.13;;;26.26;42.09
26861;BME280;37676;46.956;7.430;2022-08-01T09:39:36;95409.22;;;27.31;41.76
26861;BME280;37676;46.956;7.430;2022-08-01T09:42:25;95480.50;;;27.86;41.64
26861;BME280;37676;46.956;7.430;2022-08-01T09:44:51;95496.78;;;27.93;41.99
26861;BME280;37676;46.956;7.430;2022-08-01T09:47:19;95338.09;;;27.06;41.85
26861;BME280;37676;46.956;7.430;2022-08-01T09:49:56;95473.09;;;28.12;41.42
26861;BME280;37676;46.956;7.430;2022-08-01T09:52:26;95348.94;;;27.36;41.24
26861;BME280;37676;46.956;7.430;2022-08-01T09:55:00;95496.41;;;28.27;41.36
26861;BME280;37676;46.956;7.430;2022-08-01T09:57:26;95472.75;;;28.27;41.27
26861;BME280;37676;46.956;7.430;2022-08-01T09:59:55;95286.81;;;27.18;40.70
26861;BME280;37676;46.956;7.430;2022-08-01T10:04:55;95055.47;;;25.80;40.32
26861;BME280;37676;46.956;7.430;2022-08-01T10:07:20;95153.00;;;26.36;40.23
26861;BME280;37676;46.956;7.430;2022-08-01T10:09:46;94884.94;;;24.91;40.16
26861;BME280;37676;46.956;7.430;2022-08-01T10:12:17;95131.78;;;26.68;39.92
26861;BME280;37676;46.956;7.430;2022-08-01T10:14:46;95435.66;;;28.79;39.84
26861;BME280;37676;46.956;7.430;2022-08-01T10:17:13;95455.97;;;29.04;39.39
26861;BME280;37676;46.956;7.430;2022-08-01T10:19:40;94882.09;;;25.29;39.26
26861;BME280;37676;46.956;7.430;2022-08-01T10:22:08;94931.00;;;25.54;39.05
26861;BME280;37676;46.956;7.430;2022-08-01T10:24:37;95147.91;;;27.13;39.11
26861;BME280;37676;46.956;7.430;2022-08-01T10:27:06;95130.78;;;27.13;38.99
26861;BME280;37676;46.956;7.430;2022-08-01T10:29:36;95268.69;;;28.24;39.14
26861;BME280;37676;46.956;7.430;2022-08-01T10:32:05;95454.03;;;29.49;38.76
26861;BME280;37676;46.956;7.430;2022-08-01T10:34:31;95469.50;;;29.55;39.17
26861;BME280;37676;46.956;7.430;2022-08-01T10:36:57;95086.28;;;27.10;39.03
26861;BME280;37676;46.956;7.430;2022-08-01T10:39:23;94797.88;;;25.26;38.62
26861;BME280;37676;46.956;7.430;2022-08-01T10:41:49;95269.13;;;28.52;38.31
26861;BME280;37676;46.956;7.430;2022-08-01T10:44:15;95259.03;;;28.72;38.70
26861;BME280;37676;46.956;7.430;2022-08-01T10:46:45;95427.03;;;29.96;37.92
26861;BME280;37676;46.956;7.430;2022-08-01T10:49:14;94860.16;;;26.19;36.23
26861;BME280;37676;46.956;7.430;2022-08-01T10:51:41;95210.66;;;28.55;36.57
26861;BME280;37676;46.956;7.430;2022-08-01T10:54:09;95234.19;;;28.86;36.49
26861;BME280;37676;46.956;7.430;2022-08-01T10:56:39;95253.03;;;29.00;36.08
26861;BME280;37676;46.956;7.430;2022-08-01T10:59:07;95454.84;;;30.26;36.02
26861;BME280;37676;46.956;7.430;2022-08-01T11:01:33;95259.66;;;29.03;35.70
26861;BME280;37676;46.956;7.430;2022-08-01T11:04:11;94730.25;;;25.76;35.34
26861;BME280;37676;46.956;7.430;2022-08-01T11:06:42;94917.59;;;26.96;35.97
26861;BME280;37676;46.956;7.430;2022-08-01T11:14:21;95226.09;;;29.15;36.03
26861;BME280;37676;46.956;7.430;2022-08-01T11:16:49;94892.06;;;27.10;35.21
26861;BME280;37676;46.956;7.430;2022-08-01T11:19:15;95221.91;;;29.39;35.51
26861;BME280;37676;46.956;7.430;2022-08-01T11:27:24;94609.72;;;25.43;34.86
26861;BME280;37676;46.956;7.430;2022-08-01T11:32:55;94403.97;;;24.08;34.63
26861;BME280;37676;46.956;7.430;2022-08-01T11:35:21;94173.63;;;22.65;34.55
26861;BME280;37676;46.956;7.430;2022-08-01T11:37:52;94409.66;;;24.08;34.28
26861;BME280;37676;46.956;7.430;2022-08-01T11:40:28;94340.25;;;24.02;34.35
26861;BME280;37676;46.956;7.430;2022-08-01T11:45:54;95283.06;;;30.46;33.39
26861;BME280;37676;46.956;7.430;2022-08-01T11:48:29;95398.25;;;31.21;32.68
26861;BME280;37676;46.956;7.430;2022-08-01T11:50:56;94511.34;;;25.00;32.73
26861;BME280;37676;46.956;7.430;2022-08-01T11:53:25;94300.19;;;23.98;32.34
26861;BME280;37676;46.956;7.430;2022-08-01T11:55:54;94716.91;;;26.73;31.20
26861;BME280;37676;46.956;7.430;2022-08-01T11:58:24;94835.81;;;27.66;31.62
26861;BME280;37676;46.956;7.430;2022-08-01T12:00:55;94892.97;;;28.10;31.61
26861;BME280;37676;46.956;7.430;2022-08-01T12:03:26;94705.16;;;26.90;31.11
26861;BME280;37676;46.956;7.430;2022-08-01T12:05:53;95385.31;;;31.34;31.20
26861;BME280;37676;46.956;7.430;2022-08-01T12:08:29;94119.28;;;22.78;31.49
26861;BME280;37676;46.956;7.430;2022-08-01T12:11:04;95359.06;;;31.39;31.27
26861;BME280;37676;46.956;7.430;2022-08-01T12:13:41;95029.75;;;29.14;31.00
26861;BME280;37676;46.956;7.430;2022-08-01T12:16:10;95353.16;;;31.49;30.69
26861;BME280;37676;46.956;7.430;2022-08-01T12:18:42;94446.81;;;25.35;31.39
26861;BME280;37676;46.956;7.430;2022-08-01T12:21:10;95060.41;;;29.23;30.15
26861;BME280;37676;46.956;7.430;2022-08-01T12:23:36;94342.69;;;24.78;30.52
26861;BME280;37676;46.956;7.430;2022-08-01T12:26:07;94688.44;;;27.19;30.01
26861;BME280;37676;46.956;7.430;2022-08-01T12:28:39;94674.53;;;27.02;30.40
26861;BME280;37676;46.956;7.430;2022-08-01T12:31:05;94429.22;;;25.06;30.10
26861;BME280;37676;46.956;7.430;2022-08-01T12:33:30;94973.19;;;28.80;30.36
26861;BME280;37676;46.956;7.430;2022-08-01T12:35:56;94260.66;;;24.11;29.58
26861;BME280;37676;46.956;7.430;2022-08-01T12:38:25;94973.91;;;28.69;30.88
26861;BME280;37676;46.956;7.430;2022-08-01T12:40:52;94748.03;;;26.69;30.92
26861;BME280;37676;46.956;7.430;2022-08-01T12:43:19;94318.47;;;24.25;31.05
26861;BME280;37676;46.956;7.430;2022-08-01T12:45:46;94708.88;;;26.60;29.54
26861;BME280;37676;46.956;7.430;2022-08-01T12:48:13;95375.13;;;31.19;29.01
26861;BME280;37676;46.956;7.430;2022-08-01T12:50:42;95084.78;;;29.01;30.51
26861;BME280;37676;46.956;7.430;2022-08-01T12:53:08;95407.66;;;31.10;29.57
26861;BME280;37676;46.956;7.430;2022-08-01T12:55:43;95236.91;;;30.42;29.31
26861;BME280;37676;46.956;7.430;2022-08-01T12:58:11;95037.44;;;29.00;29.25
26861;BME280;37676;46.956;7.430;2022-08-01T13:00:38;95338.53;;;31.08;28.90
26861;BME280;37676;46.956;7.430;2022-08-01T13:03:08;95328.22;;;30.80;29.39
26861;BME280;37676;46.956;7.430;2022-08-01T13:08:12;94831.03;;;27.26;29.66
26861;BME280;37676;46.956;7.430;2022-08-01T13:10:39;94487.16;;;25.10;30.29
26861;BME280;37676;46.956;7.430;2022-08-01T13:13:05;94272.69;;;23.60;28.40
26861;BME280;37676;46.956;7.430;2022-08-01T13:15:34;94960.00;;;28.07;29.21
26861;BME280;37676;46.956;7.430;2022-08-01T13:18:21;94972.94;;;28.53;29.31
26861;BME280;37676;46.956;7.430;2022-08-01T13:20:46;94630.06;;;26.22;29.49
26861;BME280;37676;46.956;7.430;2022-08-01T13:23:17;94994.06;;;28.59;30.11
26861;BME280;37676;46.956;7.430;2022-08-01T13:25:53;94264.06;;;23.48;30.42
26861;BME280;37676;46.956;7.430;2022-08-01T13:28:22;94926.31;;;28.17;30.32
26861;BME280;37676;46.956;7.430;2022-08-01T13:31:07;95322.75;;;30.84;29.86
26861;BME280;37676;46.956;7.430;2022-08-01T13:36:07;95141.88;;;29.66;29.60
26861;BME280;37676;46.956;7.430;2022-08-01T13:38:32;95163.06;;;29.61;29.60
26861;BME280;37676;46.956;7.430;2022-08-01T13:41:16;95042.03;;;28.82;30.30
26861;BME280;37676;46.956;7.430;2022-08-01T13:43:42;95204.00;;;29.96;29.80
26861;BME280;37676;46.956;7.430;2022-08-01T13:46:10;95221.34;;;29.87;30.27
26861;BME280;37676;46.956;7.430;2022-08-01T13:48:38;95407.28;;;30.92;30.30
26861;BME280;37676;46.956;7.430;2022-08-01T13:51:08;94270.97;;;23.76;30.54
26861;BME280;37676;46.956;7.430;2022-08-01T13:53:33;94813.84;;;27.36;29.62
26861;BME280;37676;46.956;7.430;2022-08-01T13:56:03;94764.09;;;26.85;30.40
26861;BME280;37676;46.956;7.430;2022-08-01T13:58:29;95399.44;;;30.93;29.96
26861;BME280;37676;46.956;7.430;2022-08-01T14:00:56;94700.47;;;26.19;30.50
26861;BME280;37676;46.956;7.430;2022-08-01T14:03:27;94297.59;;;23.71;31.15
26861;BME280;37676;46.956;7.430;2022-08-01T14:05:55;94958.91;;;28.12;30.56
26861;BME280;37676;46.956;7.430;2022-08-01T14:08:23;94311.00;;;23.90;30.43
26861;BME280;37676;46.956;7.430;2022-08-01T14:10:48;95036.78;;;28.67;30.31